createdAt,value
2022-10-26T00:01:18.741Z,12.86
2022-10-26T00:06:25.322Z,11.75
2022-10-26T00:11:30.497Z,11.70
2022-10-26T00:16:34.192Z,11.29
2022-10-26T00:21:37.883Z,10.76
2022-10-26T00:26:43.163Z,10.91
2022-10-26T00:31:46.937Z,11.05
2022-10-26T00:36:50.637Z,11.14
2022-10-26T00:41:55.732Z,10.91
2022-10-26T00:46:59.422Z,10.38
2022-10-26T00:52:03.212Z,10.11
2022-10-26T00:57:08.915Z,10.12
2022-10-26T01:02:13.296Z,10.12
2022-10-26T01:07:17.363Z,10.31
2022-10-26T01:12:22.414Z,10.48
2022-10-26T01:17:44.281Z,10.73
2022-10-26T01:22:55.294Z,11.11
2022-10-26T01:28:03.757Z,11.10
2022-10-26T01:33:36.199Z,11.07
2022-10-26T01:38:53.541Z,11.03
2022-10-26T01:43:58.657Z,11.43
2022-10-26T01:49:09.832Z,11.59
2022-10-26T01:54:13.476Z,11.82
2022-10-26T01:59:48.653Z,12.28
2022-10-26T02:05:09.057Z,12.05
2022-10-26T02:10:23.944Z,11.97
2022-10-26T02:15:35.156Z,12.05
2022-10-26T02:20:44.457Z,12.53
2022-10-26T02:25:54.648Z,13.02
2022-10-26T02:31:00.827Z,11.96
2022-10-26T02:36:10.125Z,11.52
2022-10-26T02:41:16.196Z,11.69
2022-10-26T02:46:24.128Z,11.72
2022-10-26T02:51:35.925Z,11.33
2022-10-26T02:56:48.219Z,11.36
2022-10-26T03:01:53.200Z,11.77
2022-10-26T03:06:58.612Z,12.11
2022-10-26T03:12:02.513Z,11.71
2022-10-26T03:17:06.272Z,11.85
2022-10-26T03:22:11.415Z,11.78
2022-10-26T03:27:15.216Z,11.76
2022-10-26T03:32:18.935Z,11.93
2022-10-26T03:37:24.056Z,11.71
2022-10-26T03:42:28.077Z,11.87
2022-10-26T03:47:31.857Z,12.21
2022-10-26T03:52:36.973Z,12.02
2022-10-26T03:57:44.258Z,12.44
2022-10-26T04:02:55.882Z,12.13
2022-10-26T04:08:03.232Z,12.40
2022-10-26T04:13:07.011Z,13.37
2022-10-26T04:18:13.040Z,13.32
2022-10-26T04:23:19.820Z,13.46
2022-10-26T04:28:23.536Z,13.75
2022-10-26T04:33:27.344Z,13.12
2022-10-26T04:38:32.468Z,13.74
2022-10-26T04:43:36.312Z,13.19
2022-10-26T04:48:40.401Z,13.04
2022-10-26T04:53:45.534Z,13.80
2022-10-26T04:58:49.490Z,13.18
2022-10-26T05:03:54.113Z,12.83
2022-10-26T05:08:59.335Z,13.14
2022-10-26T05:14:03.265Z,13.86
2022-10-26T05:19:06.965Z,14.30
2022-10-26T05:24:12.619Z,14.06
2022-10-26T05:29:16.411Z,14.23
2022-10-26T05:34:20.205Z,13.11
2022-10-26T05:39:25.285Z,12.89
2022-10-26T05:44:29.057Z,12.67
2022-10-26T05:49:32.807Z,12.59
2022-10-26T05:54:37.872Z,12.55
2022-10-26T05:59:42.174Z,12.74
2022-10-26T06:04:48.511Z,12.53
2022-10-26T06:09:54.736Z,12.66
2022-10-26T06:14:59.813Z,12.84
2022-10-26T06:20:18.255Z,13.43
2022-10-26T06:25:33.853Z,13.83
2022-10-26T06:30:38.040Z,13.73
2022-10-26T06:35:51.593Z,13.03
2022-10-26T06:40:58.442Z,12.97
2022-10-26T06:46:13.029Z,12.60
2022-10-26T06:51:18.382Z,13.70
2022-10-26T06:56:24.858Z,13.71
2022-10-26T07:01:28.792Z,13.39
2022-10-26T07:06:34.434Z,12.99
2022-10-26T07:11:42.307Z,13.30
2022-10-26T07:16:46.193Z,13.23
2022-10-26T07:21:50.059Z,13.48
2022-10-26T07:26:56.985Z,13.89
2022-10-26T07:32:00.685Z,13.43
2022-10-26T07:37:04.514Z,13.93
2022-10-26T07:42:10.249Z,14.15
2022-10-26T07:47:14.038Z,13.39
2022-10-26T07:52:17.818Z,13.57
2022-10-26T07:57:23.007Z,13.63
2022-10-26T08:02:27.080Z,13.87
2022-10-26T08:07:30.999Z,14.56
2022-10-26T08:12:36.177Z,15.20
2022-10-26T08:17:40.164Z,14.45
2022-10-26T08:22:43.914Z,14.30
2022-10-26T08:27:49.392Z,14.37
2022-10-26T08:32:59.897Z,14.87
2022-10-26T08:38:03.920Z,14.75
2022-10-26T08:43:17.569Z,14.67
2022-10-26T08:48:25.517Z,14.94
2022-10-26T08:53:35.090Z,15.62
2022-10-26T08:58:44.873Z,15.60
2022-10-26T09:03:48.921Z,16.43
2022-10-26T09:09:02.796Z,15.99
2022-10-26T09:14:14.841Z,15.90
2022-10-26T09:19:45.631Z,16.32
2022-10-26T09:24:54.839Z,15.32
2022-10-26T09:30:05.181Z,15.77
2022-10-26T09:35:16.929Z,15.78
2022-10-26T09:40:26.531Z,15.49
2022-10-26T09:45:36.797Z,15.98
2022-10-26T09:50:43.991Z,16.18
2022-10-26T09:55:52.053Z,16.42
2022-10-26T10:00:57.846Z,16.61
2022-10-26T10:06:17.561Z,16.78
2022-10-26T10:11:21.249Z,16.69
2022-10-26T10:16:27.496Z,16.25
2022-10-26T10:21:39.047Z,16.10
2022-10-26T10:26:57.996Z,15.35
2022-10-26T10:32:04.604Z,16.14
2022-10-26T10:37:23.424Z,16.10
2022-10-26T10:42:29.014Z,15.85
2022-10-26T10:47:35.316Z,15.99
2022-10-26T10:52:39.162Z,16.13
2022-10-26T10:57:55.577Z,16.46
2022-10-26T11:03:36.067Z,16.16
2022-10-26T11:08:47.654Z,16.26
2022-10-26T11:13:56.996Z,16.11
2022-10-26T11:19:06.035Z,16.34
2022-10-26T11:24:21.579Z,17.38
2022-10-26T11:29:38.251Z,18.14
2022-10-26T11:34:49.268Z,17.08
2022-10-26T11:40:03.594Z,17.06
2022-10-26T11:45:17.860Z,18.79
2022-10-26T11:50:24.096Z,19.98
2022-10-26T11:55:30.390Z,19.24
2022-10-26T12:00:35.919Z,19.06
2022-10-26T12:05:45.110Z,20.94
2022-10-26T12:10:58.368Z,21.66
2022-10-26T12:16:08.364Z,22.41
2022-10-26T12:21:13.687Z,21.30
2022-10-26T12:26:40.252Z,21.73
2022-10-26T12:31:45.223Z,23.24
2022-10-26T12:36:50.432Z,21.55
2022-10-26T12:41:59.206Z,22.52
2022-10-26T12:47:03.700Z,20.69
2022-10-26T12:52:21.099Z,21.09
2022-10-26T12:57:34.207Z,18.18
2022-10-26T13:02:53.073Z,17.81
2022-10-26T13:08:03.803Z,19.85
2022-10-26T13:13:10.147Z,21.66
2022-10-26T13:18:18.977Z,21.05
2022-10-26T13:23:26.969Z,22.38
2022-10-26T13:28:45.226Z,20.48
2022-10-26T13:33:53.367Z,20.80
2022-10-26T13:39:02.235Z,20.23
2022-10-26T13:44:16.613Z,20.97
2022-10-26T13:49:25.825Z,21.48
2022-10-26T13:54:35.372Z,20.74
2022-10-26T13:59:45.531Z,21.01
2022-10-26T14:04:52.877Z,21.67
2022-10-26T14:09:58.915Z,20.68
2022-10-26T14:15:08.908Z,19.69
2022-10-26T14:20:20.006Z,20.10
2022-10-26T14:25:35.925Z,20.06
2022-10-26T14:30:52.409Z,19.81
2022-10-26T14:35:57.519Z,19.66
2022-10-26T14:41:01.562Z,19.76
2022-10-26T14:46:07.410Z,20.39
2022-10-26T14:51:18.000Z,19.64
2022-10-26T14:56:25.898Z,20.30
2022-10-26T15:01:48.273Z,20.07
2022-10-26T15:06:52.684Z,19.52
2022-10-26T15:11:56.581Z,17.11
2022-10-26T15:17:02.809Z,16.52
2022-10-26T15:22:06.734Z,15.33
2022-10-26T15:27:16.364Z,14.81
2022-10-26T15:32:28.357Z,14.39
2022-10-26T15:37:32.293Z,14.21
2022-10-26T15:42:38.879Z,14.01
2022-10-26T15:47:44.502Z,14.81
2022-10-26T15:52:49.431Z,14.06
2022-10-26T15:57:53.738Z,14.34
2022-10-26T16:02:58.954Z,13.69
2022-10-26T16:08:02.858Z,12.93
2022-10-26T16:13:12.244Z,12.49
2022-10-26T16:18:17.354Z,12.25
2022-10-26T16:23:21.198Z,12.43
2022-10-26T16:28:24.930Z,12.01
2022-10-26T16:33:30.458Z,12.00
2022-10-26T16:38:34.642Z,11.58
2022-10-26T16:43:40.298Z,11.63
2022-10-26T16:48:45.824Z,11.89
2022-10-26T16:53:50.978Z,12.31
2022-10-26T16:58:57.737Z,12.04
2022-10-26T17:09:07.626Z,13.21
2022-10-26T17:14:11.745Z,12.57
2022-10-26T17:19:17.081Z,12.69
2022-10-26T17:24:21.033Z,12.04
2022-10-26T17:29:25.071Z,12.04
2022-10-26T17:34:30.375Z,12.48
2022-10-26T17:39:34.272Z,13.14
2022-10-26T17:44:39.189Z,13.43
2022-10-26T17:49:44.542Z,13.38
2022-10-26T17:54:48.265Z,13.06
2022-10-26T17:59:52.193Z,13.16
2022-10-26T18:04:57.438Z,13.29
2022-10-26T18:10:14.048Z,12.29
2022-10-26T18:15:25.555Z,12.74
2022-10-26T18:20:30.909Z,11.97
2022-10-26T18:25:36.233Z,12.25
2022-10-26T18:30:40.247Z,12.08
2022-10-26T18:35:46.385Z,12.31
2022-10-26T18:40:53.852Z,12.12
2022-10-26T18:46:05.580Z,12.07
2022-10-26T18:51:12.464Z,12.54
2022-10-26T18:56:18.920Z,12.24
2022-10-26T19:01:24.771Z,12.51
2022-10-26T19:06:32.622Z,12.41
2022-10-26T19:11:37.145Z,11.99
2022-10-26T19:16:45.846Z,11.73
2022-10-26T19:21:53.936Z,11.94
2022-10-26T19:26:57.898Z,12.05
2022-10-26T19:32:02.956Z,11.93
2022-10-26T19:37:09.589Z,12.01
2022-10-26T19:42:13.538Z,11.81
2022-10-26T19:47:17.336Z,11.96
2022-10-26T19:52:22.548Z,12.45
2022-10-26T19:57:26.401Z,12.32
2022-10-26T20:02:30.156Z,11.99
2022-10-26T20:07:35.495Z,12.19
2022-10-26T20:12:39.392Z,11.91
2022-10-26T20:17:43.131Z,12.06
2022-10-26T20:22:48.606Z,11.69
2022-10-26T20:27:52.945Z,11.23
2022-10-26T20:32:57.689Z,11.39
2022-10-26T20:38:04.012Z,11.39
2022-10-26T20:43:10.228Z,11.09
2022-10-26T20:48:14.982Z,10.61
2022-10-26T20:53:26.651Z,11.01
2022-10-26T20:58:39.147Z,10.62
2022-10-26T21:03:43.076Z,10.40
2022-10-26T21:08:51.445Z,10.72
2022-10-26T21:13:56.046Z,10.72
2022-10-26T21:19:01.534Z,10.59
2022-10-26T21:24:07.737Z,11.55
2022-10-26T21:29:12.128Z,11.77
2022-10-26T21:34:16.050Z,12.04
2022-10-26T21:39:21.263Z,11.85
2022-10-26T21:44:40.348Z,11.99
2022-10-26T21:49:45.026Z,11.76
2022-10-26T21:54:50.264Z,11.80
2022-10-26T21:59:54.182Z,12.28
2022-10-26T22:04:57.987Z,11.37
2022-10-26T22:10:11.168Z,11.29
2022-10-26T22:15:15.453Z,10.81
2022-10-26T22:20:19.513Z,10.65
2022-10-26T22:25:24.633Z,10.57
2022-10-26T22:30:28.411Z,10.92
2022-10-26T22:35:32.165Z,10.31
2022-10-26T22:40:37.376Z,11.20
2022-10-26T22:45:41.226Z,10.77
2022-10-26T22:50:45.042Z,10.53
2022-10-26T22:55:50.540Z,10.32
2022-10-26T23:00:54.297Z,10.67
2022-10-26T23:05:58.429Z,11.05
2022-10-26T23:11:06.618Z,11.07
2022-10-26T23:16:12.493Z,11.23
2022-10-26T23:21:17.711Z,10.65
2022-10-26T23:26:23.299Z,10.40
2022-10-26T23:31:28.532Z,11.11
2022-10-26T23:36:32.431Z,10.82
2022-10-26T23:41:37.571Z,11.63
2022-10-26T23:46:41.341Z,11.55
2022-10-26T23:51:45.077Z,11.82
2022-10-26T23:56:50.286Z,11.10
